createdAt,value
2022-10-10T00:01:27.938Z,100803.22
2022-10-10T00:04:16.347Z,100801.56
2022-10-10T00:07:05.201Z,100790.47
2022-10-10T00:09:54.969Z,100795.41
2022-10-10T00:12:43.483Z,100789.03
2022-10-10T00:15:31.929Z,100777.72
2022-10-10T00:18:20.376Z,100786.75
2022-10-10T00:21:10.027Z,100780.13
2022-10-10T00:23:58.511Z,100782.44
2022-10-10T00:26:48.319Z,100770.72
2022-10-10T00:29:36.752Z,100772.75
2022-10-10T00:32:25.290Z,100782.63
2022-10-10T00:35:13.722Z,100778.09
2022-10-10T00:38:02.215Z,100768.41
2022-10-10T00:40:52.247Z,100765.75
2022-10-10T00:43:42.139Z,100765.75
2022-10-10T00:46:30.861Z,100765.75
2022-10-10T00:49:22.339Z,100779.09
2022-10-10T00:52:11.941Z,100767.78
2022-10-10T00:55:00.440Z,100764.94
2022-10-10T00:57:49.054Z,100762.44
2022-10-10T01:00:38.895Z,100764.47
2022-10-10T01:03:27.896Z,100751.75
2022-10-10T01:06:16.380Z,100761.63
2022-10-10T01:09:04.828Z,100754.78
2022-10-10T01:11:54.881Z,100750.09
2022-10-10T01:14:48.657Z,100750.47
2022-10-10T01:17:42.939Z,100752.13
2022-10-10T01:20:59.796Z,100748.41
2022-10-10T01:24:20.543Z,100745.13
2022-10-10T01:27:14.858Z,100738.13
2022-10-10T01:30:07.232Z,100736.09
2022-10-10T01:33:00.207Z,100723.38
2022-10-10T01:35:54.250Z,100720.03
2022-10-10T01:38:50.615Z,100720.84
2022-10-10T01:41:42.845Z,100715.19
2022-10-10T01:44:31.297Z,100713.84
2022-10-10T01:47:22.033Z,100717.19
2022-10-10T01:50:14.861Z,100714.88
2022-10-10T01:53:11.835Z,100717.19
2022-10-10T01:56:05.474Z,100713.06
2022-10-10T01:59:12.009Z,100709.75
2022-10-10T02:02:04.632Z,100703.97
2022-10-10T02:04:58.467Z,100704.78
2022-10-10T02:07:51.274Z,100704.78
2022-10-10T02:10:44.114Z,100692.44
2022-10-10T02:13:34.778Z,100681.50
2022-10-10T02:16:25.101Z,100678.84
2022-10-10T02:19:16.193Z,100669.19
2022-10-10T02:22:06.674Z,100673.06
2022-10-10T02:24:55.531Z,100675.53
2022-10-10T02:27:46.768Z,100671.22
2022-10-10T02:30:37.223Z,100663.19
2022-10-10T02:33:29.886Z,100665.88
2022-10-10T02:36:19.157Z,100662.38
2022-10-10T02:39:09.113Z,100659.28
2022-10-10T02:41:57.774Z,100651.50
2022-10-10T02:44:46.794Z,100645.53
2022-10-10T02:47:35.190Z,100651.22
2022-10-10T02:50:24.465Z,100642.19
2022-10-10T02:53:12.925Z,100639.53
2022-10-10T02:56:02.825Z,100634.41
2022-10-10T02:58:51.230Z,100629.69
2022-10-10T03:01:39.744Z,100628.66
2022-10-10T03:04:28.821Z,100624.97
2022-10-10T03:07:17.225Z,100626.81
2022-10-10T03:10:07.400Z,100622.50
2022-10-10T03:12:57.212Z,100625.16
2022-10-10T03:15:45.649Z,100619.16
2022-10-10T03:18:35.288Z,100615.47
2022-10-10T03:21:23.779Z,100614.66
2022-10-10T03:24:12.358Z,100606.66
2022-10-10T03:27:00.791Z,100601.13
2022-10-10T03:29:50.539Z,100594.09
2022-10-10T03:32:38.899Z,100591.44
2022-10-10T03:35:27.338Z,100595.78
2022-10-10T03:38:16.038Z,100587.75
2022-10-10T03:41:04.486Z,100578.06
2022-10-10T03:43:53.041Z,100568.41
2022-10-10T03:46:42.823Z,100571.06
2022-10-10T03:49:31.309Z,100564.09
2022-10-10T03:52:19.726Z,100560.38
2022-10-10T03:55:08.882Z,100557.09
2022-10-10T03:57:57.288Z,100562.03
2022-10-10T04:00:45.680Z,100552.38
2022-10-10T04:03:35.500Z,100542.53
2022-10-10T04:06:23.948Z,100548.06
2022-10-10T04:09:12.500Z,100539.00
2022-10-10T04:12:01.735Z,100546.00
2022-10-10T04:14:50.383Z,100540.03
2022-10-10T04:17:38.870Z,100539.41
2022-10-10T04:20:28.899Z,100538.41
2022-10-10T04:23:17.348Z,100532.03
2022-10-10T04:26:05.918Z,100525.31
2022-10-10T04:28:54.800Z,100525.13
2022-10-10T04:31:43.348Z,100526.31
2022-10-10T04:34:31.912Z,100524.94
2022-10-10T04:37:21.882Z,100531.56
2022-10-10T04:40:11.446Z,100522.19
2022-10-10T04:43:10.260Z,100517.94
2022-10-10T04:45:58.751Z,100519.06
2022-10-10T04:48:47.187Z,100516.00
2022-10-10T04:51:35.742Z,100514.59
2022-10-10T04:54:25.552Z,100520.78
2022-10-10T04:57:14.037Z,100518.38
2022-10-10T05:00:03.057Z,100514.69
2022-10-10T05:02:51.759Z,100515.94
2022-10-10T05:05:41.207Z,100518.38
2022-10-10T05:08:29.806Z,100513.84
2022-10-10T05:11:19.554Z,100518.38
2022-10-10T05:14:08.552Z,100501.91
2022-10-10T05:16:56.936Z,100512.59
2022-10-10T05:19:45.550Z,100510.13
2022-10-10T05:22:34.129Z,100501.06
2022-10-10T05:25:22.555Z,100493.28
2022-10-10T05:28:12.666Z,100497.78
2022-10-10T05:31:01.117Z,100491.41
2022-10-10T05:33:49.542Z,100487.09
2022-10-10T05:36:39.900Z,100490.41
2022-10-10T05:39:28.340Z,100487.53
2022-10-10T05:42:17.155Z,100487.13
2022-10-10T05:45:07.972Z,100485.50
2022-10-10T05:47:56.403Z,100481.00
2022-10-10T05:50:48.861Z,100475.66
2022-10-10T05:53:37.398Z,100487.53
2022-10-10T05:56:25.887Z,100477.69
2022-10-10T05:59:14.335Z,100472.34
2022-10-10T06:02:04.186Z,100479.97
2022-10-10T06:04:52.622Z,100482.19
2022-10-10T06:08:03.489Z,100472.72
2022-10-10T06:10:49.790Z,100482.38
2022-10-10T06:13:38.677Z,100483.66
2022-10-10T06:16:27.931Z,100483.06
2022-10-10T06:19:17.765Z,100488.78
2022-10-10T06:22:06.358Z,100489.63
2022-10-10T06:24:54.864Z,100482.63
2022-10-10T06:27:43.277Z,100487.97
2022-10-10T06:30:31.858Z,100488.59
2022-10-10T06:33:20.882Z,100491.25
2022-10-10T06:36:11.825Z,100488.59
2022-10-10T06:39:01.163Z,100493.94
2022-10-10T06:41:50.199Z,100492.28
2022-10-10T06:44:38.679Z,100504.00
2022-10-10T06:47:27.198Z,100498.66
2022-10-10T06:50:15.849Z,100498.66
2022-10-10T06:53:06.145Z,100509.34
2022-10-10T06:55:55.507Z,100497.81
2022-10-10T06:58:45.119Z,100504.00
2022-10-10T07:01:33.659Z,100498.66
2022-10-10T07:04:22.412Z,100505.03
2022-10-10T07:07:11.087Z,100513.84
2022-10-10T07:10:00.880Z,100512.00
2022-10-10T07:12:49.321Z,100527.41
2022-10-10T07:15:37.988Z,100515.09
2022-10-10T07:18:26.613Z,100519.41
2022-10-10T07:21:14.992Z,100517.75
2022-10-10T07:24:03.481Z,100509.53
2022-10-10T07:27:02.310Z,100512.00
2022-10-10T07:29:52.469Z,100513.03
2022-10-10T07:32:40.895Z,100520.03
2022-10-10T07:35:31.012Z,100518.38
2022-10-10T07:38:19.504Z,100526.19
2022-10-10T07:41:09.057Z,100521.66
2022-10-10T07:43:59.141Z,100517.34
2022-10-10T07:46:47.625Z,100517.34
2022-10-10T07:49:36.071Z,100514.69
2022-10-10T07:52:27.554Z,100514.47
2022-10-10T07:55:15.992Z,100511.78
2022-10-10T07:58:04.508Z,100519.63
2022-10-10T08:01:03.467Z,100517.13
2022-10-10T08:03:59.806Z,100519.81
2022-10-10T08:06:48.684Z,100516.94
2022-10-10T08:09:37.089Z,100521.28
2022-10-10T08:12:25.553Z,100521.28
2022-10-10T08:15:14.020Z,100513.25
2022-10-10T08:18:03.892Z,100519.22
2022-10-10T08:21:00.395Z,100513.88
2022-10-10T08:23:49.017Z,100512.84
2022-10-10T08:26:37.493Z,100518.19
2022-10-10T08:29:27.449Z,100516.56
2022-10-10T08:32:18.593Z,100514.72
2022-10-10T08:35:11.987Z,100514.53
2022-10-10T08:38:00.398Z,100511.03
2022-10-10T08:40:51.834Z,100513.50
2022-10-10T08:43:43.207Z,100517.81
2022-10-10T08:46:36.474Z,100520.50
2022-10-10T08:49:28.756Z,100510.63
2022-10-10T08:52:27.000Z,100510.63
2022-10-10T08:55:18.646Z,100510.44
2022-10-10T08:58:11.604Z,100511.06
2022-10-10T09:01:04.515Z,100509.41
2022-10-10T09:03:54.445Z,100505.72
2022-10-10T09:06:54.046Z,100502.84
2022-10-10T09:09:46.536Z,100507.38
2022-10-10T09:12:40.121Z,100507.97
2022-10-10T09:15:32.768Z,100499.97
2022-10-10T09:18:30.007Z,100501.63
2022-10-10T09:21:21.088Z,100507.59
2022-10-10T09:24:13.736Z,100500.41
2022-10-10T09:27:05.442Z,100497.09
2022-10-10T09:29:56.823Z,100501.25
2022-10-10T09:32:48.648Z,100501.25
2022-10-10T09:35:39.353Z,100502.88
2022-10-10T09:38:34.897Z,100500.00
2022-10-10T09:41:28.266Z,100495.50
2022-10-10T09:44:22.239Z,100490.97
2022-10-10T09:47:13.898Z,100495.94
2022-10-10T09:52:53.490Z,100486.88
2022-10-10T09:55:42.275Z,100493.03
2022-10-10T09:58:35.061Z,100489.34
2022-10-10T10:01:29.116Z,100490.97
2022-10-10T10:04:28.688Z,100490.00
2022-10-10T10:07:22.824Z,100492.25
2022-10-10T10:10:20.703Z,100487.94
2022-10-10T10:13:14.605Z,100490.59
2022-10-10T10:16:06.254Z,100487.72
2022-10-10T10:18:56.065Z,100486.06
2022-10-10T10:21:50.863Z,100491.22
2022-10-10T10:24:40.329Z,100485.03
2022-10-10T10:27:30.313Z,100487.53
2022-10-10T10:30:26.881Z,100489.34
2022-10-10T10:33:21.005Z,100485.88
2022-10-10T10:36:20.686Z,100479.50
2022-10-10T10:39:18.842Z,100482.84
2022-10-10T10:42:16.651Z,100474.63
2022-10-10T10:45:12.985Z,100468.44
2022-10-10T10:48:07.499Z,100470.09
2022-10-10T10:50:58.400Z,100472.56
2022-10-10T10:53:54.798Z,100461.69
2022-10-10T10:56:49.936Z,100456.97
2022-10-10T11:00:26.418Z,100456.97
2022-10-10T11:03:21.015Z,100442.56
2022-10-10T11:06:24.333Z,100436.81
2022-10-10T11:09:45.058Z,100440.53
2022-10-10T11:12:42.580Z,100438.47
2022-10-10T11:15:54.461Z,100442.16
2022-10-10T11:18:47.464Z,100427.75
2022-10-10T11:21:40.630Z,100425.72
2022-10-10T11:24:40.504Z,100427.75
2022-10-10T11:27:34.781Z,100426.75
2022-10-10T11:30:25.460Z,100424.69
2022-10-10T11:33:18.290Z,100418.72
2022-10-10T11:36:11.206Z,100415.84
2022-10-10T11:39:04.756Z,100412.97
2022-10-10T11:41:57.002Z,100422.66
2022-10-10T11:44:48.286Z,100426.97
2022-10-10T11:47:40.918Z,100423.28
2022-10-10T11:50:31.263Z,100419.56
2022-10-10T11:53:24.998Z,100414.41
2022-10-10T11:56:20.823Z,100414.22
2022-10-10T11:59:17.633Z,100410.53
2022-10-10T12:02:17.388Z,100407.84
2022-10-10T12:05:06.856Z,100415.66
2022-10-10T12:08:06.783Z,100407.63
2022-10-10T12:10:58.743Z,100401.47
2022-10-10T12:13:48.738Z,100405.78
2022-10-10T12:16:41.675Z,100404.75
2022-10-10T12:19:30.632Z,100386.22
2022-10-10T12:22:27.880Z,100395.09
2022-10-10T12:25:27.853Z,100392.84
2022-10-10T12:28:28.348Z,100394.06
2022-10-10T12:31:34.600Z,100387.50
2022-10-10T12:34:45.291Z,100389.13
2022-10-10T12:37:35.271Z,100386.28
2022-10-10T12:40:24.146Z,100385.03
2022-10-10T12:43:26.231Z,100389.16
2022-10-10T12:46:24.602Z,100375.34
2022-10-10T12:49:21.373Z,100368.97
2022-10-10T12:52:14.699Z,100366.31
2022-10-10T12:55:07.308Z,100361.56
2022-10-10T12:57:56.942Z,100372.06
2022-10-10T13:00:46.919Z,100365.91
2022-10-10T13:03:38.967Z,100366.53
2022-10-10T13:06:32.969Z,100368.38
2022-10-10T13:09:24.928Z,100361.97
2022-10-10T13:12:23.966Z,100362.59
2022-10-10T13:15:20.990Z,100368.97
2022-10-10T13:18:09.425Z,100369.81
2022-10-10T13:20:58.142Z,100363.63
2022-10-10T13:26:59.212Z,100369.81
2022-10-10T13:29:48.253Z,100363.63
2022-10-10T13:32:37.358Z,100366.53
2022-10-10T13:35:27.645Z,100365.28
2022-10-10T13:38:21.105Z,100366.53
2022-10-10T13:41:09.729Z,100366.53
2022-10-10T13:43:59.585Z,100368.59
2022-10-10T13:46:49.425Z,100374.97
2022-10-10T13:49:37.962Z,100365.28
2022-10-10T13:52:26.428Z,100361.78
2022-10-10T13:55:17.249Z,100353.16
2022-10-10T13:58:08.565Z,100355.00
2022-10-10T14:01:00.357Z,100358.69
2022-10-10T14:03:50.129Z,100358.28
2022-10-10T14:06:38.684Z,100351.28
2022-10-10T14:09:30.535Z,100346.97
2022-10-10T14:12:24.354Z,100343.06
2022-10-10T14:15:37.696Z,100338.09
2022-10-10T14:18:27.866Z,100337.91
2022-10-10T14:21:17.422Z,100338.53
2022-10-10T14:24:06.454Z,100333.59
2022-10-10T14:26:55.209Z,100339.75
2022-10-10T14:29:44.374Z,100332.75
2022-10-10T14:32:32.765Z,100327.84
2022-10-10T14:35:22.726Z,100333.59
2022-10-10T14:38:20.539Z,100324.53
2022-10-10T14:41:12.617Z,100327.41
2022-10-10T14:44:01.109Z,100329.69
2022-10-10T14:46:51.782Z,100340.16
2022-10-10T14:49:40.221Z,100331.97
2022-10-10T14:52:30.118Z,100335.25
2022-10-10T14:55:18.683Z,100337.50
2022-10-10T14:58:08.200Z,100332.78
2022-10-10T15:00:57.375Z,100329.69
2022-10-10T15:03:45.966Z,100331.97
2022-10-10T15:06:50.072Z,100330.94
2022-10-10T15:10:11.192Z,100340.59
2022-10-10T15:12:55.348Z,100337.72
2022-10-10T15:15:44.158Z,100334.00
2022-10-10T15:18:53.134Z,100336.28
2022-10-10T15:21:41.140Z,100346.34
2022-10-10T15:24:29.652Z,100340.59
2022-10-10T15:27:19.476Z,100335.66
2022-10-10T15:30:09.634Z,100337.72
2022-10-10T15:32:58.283Z,100344.28
2022-10-10T15:36:07.980Z,100345.13
2022-10-10T15:38:55.445Z,100343.09
2022-10-10T15:41:44.217Z,100347.59
2022-10-10T15:44:34.212Z,100352.72
2022-10-10T15:47:22.991Z,100355.22
2022-10-10T15:50:12.264Z,100359.31
2022-10-10T15:53:02.002Z,100357.06
2022-10-10T15:55:50.458Z,100360.75
2022-10-10T15:58:40.080Z,100362.81
2022-10-10T16:01:33.619Z,100370.22
2022-10-10T16:04:23.003Z,100368.97
2022-10-10T16:07:26.812Z,100369.41
2022-10-10T16:10:17.651Z,100367.75
2022-10-10T16:13:06.150Z,100376.38
2022-10-10T16:16:04.744Z,100371.88
2022-10-10T16:18:54.906Z,100368.38
2022-10-10T16:21:43.391Z,100379.47
2022-10-10T16:24:32.072Z,100380.50
2022-10-10T16:27:23.482Z,100380.50
2022-10-10T16:30:16.471Z,100381.53
2022-10-10T16:33:05.167Z,100381.72
2022-10-10T16:35:55.017Z,100386.47
2022-10-10T16:38:44.037Z,100378.88
2022-10-10T16:41:49.522Z,100381.53
2022-10-10T16:44:38.191Z,100389.16
2022-10-10T16:47:26.707Z,100396.13
2022-10-10T16:50:15.199Z,100401.06
2022-10-10T16:53:05.033Z,100400.69
2022-10-10T16:55:53.467Z,100406.03
2022-10-10T16:58:42.425Z,100415.28
2022-10-10T17:01:32.676Z,100420.22
2022-10-10T17:04:21.142Z,100422.47
2022-10-10T17:07:09.805Z,100423.72
2022-10-10T17:09:59.530Z,100427.44
2022-10-10T17:12:48.039Z,100432.78
2022-10-10T17:15:43.039Z,100427.81
2022-10-10T17:18:31.997Z,100429.69
2022-10-10T17:21:22.425Z,100430.72
2022-10-10T17:24:10.902Z,100439.34
2022-10-10T17:27:02.931Z,100437.28
2022-10-10T17:29:53.694Z,100439.34
2022-10-10T17:32:43.599Z,100435.66
2022-10-10T17:35:32.071Z,100437.28
2022-10-10T17:38:39.001Z,100448.00
2022-10-10T17:41:29.151Z,100443.69
2022-10-10T17:44:18.973Z,100440.19
2022-10-10T17:47:07.413Z,100443.06
2022-10-10T17:49:56.055Z,100438.94
2022-10-10T17:52:44.945Z,100437.28
2022-10-10T17:55:33.388Z,100439.38
2022-10-10T17:58:22.241Z,100441.81
2022-10-10T18:01:12.703Z,100443.47
2022-10-10T18:04:02.114Z,100439.13
2022-10-10T18:06:50.733Z,100443.00
2022-10-10T18:09:39.178Z,100440.94
2022-10-10T18:12:27.908Z,100440.97
2022-10-10T18:15:19.234Z,100442.66
2022-10-10T18:18:09.086Z,100456.22
2022-10-10T18:21:02.423Z,100456.66
2022-10-10T18:23:51.446Z,100460.16
2022-10-10T18:26:40.531Z,100461.19
2022-10-10T18:29:29.008Z,100460.16
2022-10-10T18:32:17.425Z,100469.00
2022-10-10T18:35:07.825Z,100472.75
2022-10-10T18:37:56.375Z,100465.31
2022-10-10T18:40:44.765Z,100478.50
2022-10-10T18:43:33.289Z,100483.22
2022-10-10T18:46:23.140Z,100478.06
2022-10-10T18:49:15.335Z,100478.91
2022-10-10T18:52:07.305Z,100489.22
2022-10-10T18:54:57.253Z,100484.66
2022-10-10T18:57:45.652Z,100492.09
2022-10-10T19:00:37.247Z,100484.25
2022-10-10T19:03:25.779Z,100480.53
2022-10-10T19:06:15.241Z,100484.03
2022-10-10T19:09:06.290Z,100487.56
2022-10-10T19:11:55.178Z,100489.63
2022-10-10T19:14:43.733Z,100485.50
2022-10-10T19:17:36.209Z,100487.16
2022-10-10T19:20:29.035Z,100481.81
2022-10-10T19:23:17.727Z,100486.53
2022-10-10T19:26:09.261Z,100484.50
2022-10-10T19:29:05.669Z,100490.47
2022-10-10T19:31:55.997Z,100495.81
2022-10-10T19:34:45.758Z,100494.16
2022-10-10T19:37:34.242Z,100494.56
2022-10-10T19:40:22.750Z,100499.91
2022-10-10T19:43:14.652Z,100495.56
2022-10-10T19:46:07.054Z,100498.25
2022-10-10T19:48:57.880Z,100499.28
2022-10-10T19:51:46.361Z,100514.53
2022-10-10T19:54:34.858Z,100513.50
2022-10-10T19:57:23.374Z,100506.50
2022-10-10T20:00:15.071Z,100509.38
2022-10-10T20:03:03.563Z,100500.53
2022-10-10T20:05:52.093Z,100511.63
2022-10-10T20:08:40.790Z,100513.53
2022-10-10T20:11:29.367Z,100521.34
2022-10-10T20:14:17.845Z,100521.34
2022-10-10T20:17:07.624Z,100526.91
2022-10-10T20:19:56.033Z,100530.81
2022-10-10T20:22:44.702Z,100525.88
2022-10-10T20:25:33.097Z,100528.97
2022-10-10T20:28:23.201Z,100527.94
2022-10-10T20:31:17.147Z,100528.53
2022-10-10T20:34:08.096Z,100520.50
2022-10-10T20:36:57.045Z,100532.03
2022-10-10T20:39:45.506Z,100544.41
2022-10-10T20:42:33.901Z,100535.53
2022-10-10T20:45:22.510Z,100542.75
2022-10-10T20:48:10.952Z,100540.91
2022-10-10T20:51:04.723Z,100554.91
2022-10-10T20:53:56.960Z,100549.78
2022-10-10T20:56:45.997Z,100555.97
2022-10-10T20:59:34.390Z,100562.56
2022-10-10T21:02:22.857Z,100565.63
2022-10-10T21:05:11.483Z,100565.25
2022-10-10T21:08:01.713Z,100567.50
2022-10-10T21:10:50.381Z,100567.69
2022-10-10T21:13:40.971Z,100567.47
2022-10-10T21:16:31.524Z,100580.66
2022-10-10T21:19:20.382Z,100582.50
2022-10-10T21:22:09.628Z,100582.28
2022-10-10T21:25:00.514Z,100586.41
2022-10-10T21:27:50.251Z,100590.50
2022-10-10T21:30:38.722Z,100581.84
2022-10-10T21:33:27.313Z,100589.66
2022-10-10T21:36:16.476Z,100593.38
2022-10-10T21:39:06.887Z,100591.72
2022-10-10T21:41:56.727Z,100594.59
2022-10-10T21:44:45.240Z,100593.13
2022-10-10T21:47:33.784Z,100598.31
2022-10-10T21:50:22.236Z,100593.38
2022-10-10T21:53:10.688Z,100611.88
2022-10-10T21:55:59.103Z,100601.41
2022-10-10T21:58:48.885Z,100593.78
2022-10-10T22:01:37.673Z,100609.00
2022-10-10T22:04:28.974Z,100609.00
2022-10-10T22:07:18.089Z,100607.75
2022-10-10T22:10:07.485Z,100608.78
2022-10-10T22:12:56.693Z,100610.63
2022-10-10T22:15:46.685Z,100619.84
2022-10-10T22:18:35.322Z,100613.88
2022-10-10T22:21:27.891Z,100616.75
2022-10-10T22:24:18.614Z,100623.31
2022-10-10T22:27:07.411Z,100623.94
2022-10-10T22:29:56.246Z,100624.13
2022-10-10T22:32:46.062Z,100633.41
2022-10-10T22:35:35.288Z,100638.75
2022-10-10T22:38:23.749Z,100633.78
2022-10-10T22:41:13.132Z,100632.75
2022-10-10T22:44:03.120Z,100638.09
2022-10-10T22:46:51.513Z,100644.47
2022-10-10T22:49:41.477Z,100650.84
2022-10-10T22:52:30.057Z,100649.22
2022-10-10T22:55:19.063Z,100659.91
2022-10-10T22:58:07.590Z,100661.56
2022-10-10T23:00:56.164Z,100661.78
2022-10-10T23:03:44.719Z,100664.44
2022-10-10T23:06:34.464Z,100672.47
2022-10-10T23:09:22.900Z,100670.59
2022-10-10T23:12:11.368Z,100675.34
2022-10-10T23:14:59.910Z,100682.56
2022-10-10T23:17:48.388Z,100686.03
2022-10-10T23:20:36.835Z,100688.72
2022-10-10T23:23:26.753Z,100693.25
2022-10-10T23:26:15.352Z,100703.94
2022-10-10T23:29:03.972Z,100704.94
2022-10-10T23:31:53.460Z,100701.47
2022-10-10T23:34:41.926Z,100704.75
2022-10-10T23:37:30.591Z,100709.31
2022-10-10T23:40:20.606Z,100714.84
2022-10-10T23:43:10.577Z,100721.22
2022-10-10T23:45:59.041Z,100724.91
2022-10-10T23:48:47.532Z,100730.25
2022-10-10T23:51:36.219Z,100732.72
2022-10-10T23:54:24.836Z,100742.59
2022-10-10T23:57:14.612Z,100744.66
